This is the latest recevied weather packets stored in our database for station/object JA1CAY-13. If no packets are shown the sender has not sent any weather packets the latest 10 day(s).
| Time | Temp. | Humidity | Pressure | Rain* | Wind** | Luminosity | Snow |
|---|---|---|---|---|---|---|---|
| 1777544125 | 13.89° C | 81% | 1018.7 hPa | 0 mm | - | 0 W/m² | - |
| 1777534404 | 15.56° C | 68% | 1017.5 hPa | 0 mm | - | 65 W/m² | - |
| 1777531704 | 16.11° C | 67% | 1017.9 hPa | 0 mm | - | 81 W/m² | - |
| 1777527924 | 16.11° C | 77% | 1018.3 hPa | 0 mm | - | 109 W/m² | - |
| 1777526304 | 16.67° C | 66% | 1018.4 hPa | 0 mm | - | 100 W/m² | - |
| 1777525764 | 16.67° C | 66% | 1018.4 hPa | 0 mm | - | 149 W/m² | - |
| 1777519824 | 16.67° C | 66% | 1018.9 hPa | 0 mm | - | 58 W/m² | - |
| 1777518744 | 16.67° C | 65% | 1018.8 hPa | 0 mm | - | 51 W/m² | - |
| 1777518204 | 16.67° C | 66% | 1018.9 hPa | 0 mm | - | 53 W/m² | - |
| 1777514965 | 17.22° C | 64% | 1019.3 hPa | 0 mm | - | 109 W/m² | - |
| 1777510644 | 16.67° C | 67% | 1019.4 hPa | 0 mm | - | 137 W/m² | - |
| 1777510104 | 16.67° C | 67% | 1019.2 hPa | 0 mm | - | 109 W/m² | - |
| 1777498224 | 14.44° C | 70% | 1018.8 hPa | 0 mm | - | 25 W/m² | - |
| 1777497144 | 14.44° C | 70% | 1018.5 hPa | 0 mm | - | 23 W/m² | - |
| 1777493904 | 14.44° C | 70% | 1017.7 hPa | 0 mm | - | 9 W/m² | - |
| 1777489584 | 14.44° C | 71% | 1017.3 hPa | 0 mm | - | 0 W/m² | - |
| 1777487425 | 14.44° C | 74% | 1017 hPa | 0 mm | - | 0 W/m² | - |
| 1777482564 | 15° C | 75% | 1016.2 hPa | 0 mm | - | 0 W/m² | - |
| 1777477164 | 15° C | 68% | 1016.1 hPa | 0 mm | - | 0 W/m² | - |
| 1777469064 | 16.11° C | 60% | 1015.2 hPa | 0 mm | - | 0 W/m² | - |
| 1777466365 | 16.67° C | 58% | 1014.6 hPa | 0 mm | - | 0 W/m² | - |
| 1777464204 | 17.22° C | 62% | 1014.1 hPa | 0 mm | - | 0 W/m² | - |
| 1777463124 | 17.22° C | 56% | 1014 hPa | 0 mm | - | 0 W/m² | - |
| 1777462583 | 17.78° C | 56% | 1013.7 hPa | 0 mm | - | 0 W/m² | - |
| 1777458264 | 18.33° C | 52% | 1012.2 hPa | 0 mm | - | 0 W/m² | - |
* Rain latest hour (hover to see other rain measurements)
** Current wind speed in m/s (hover to see current wind gust speed)